sensor_id;sensor_type;location;lat;lon;timestamp;temperature;humidity
23495;DHT22;26107;50.832;2.950;2022-11-22T00:14:30;7.80;99.90
23495;DHT22;26107;50.832;2.950;2022-11-22T00:29:31;7.90;99.90
23495;DHT22;26107;50.832;2.950;2022-11-22T00:44:31;7.40;99.90
23495;DHT22;26107;50.832;2.950;2022-11-22T00:59:31;6.70;99.90
23495;DHT22;26107;50.832;2.950;2022-11-22T01:14:32;6.60;99.90
23495;DHT22;26107;50.832;2.950;2022-11-22T01:29:32;6.60;99.90
23495;DHT22;26107;50.832;2.950;2022-11-22T01:44:33;6.50;99.90
23495;DHT22;26107;50.832;2.950;2022-11-22T01:59:34;6.40;99.90
23495;DHT22;26107;50.832;2.950;2022-11-22T02:14:35;6.60;99.90
23495;DHT22;26107;50.832;2.950;2022-11-22T02:29:37;6.40;99.90
23495;DHT22;26107;50.832;2.950;2022-11-22T02:44:38;6.30;99.90
23495;DHT22;26107;50.832;2.950;2022-11-22T02:59:39;6.00;99.90
23495;DHT22;26107;50.832;2.950;2022-11-22T03:14:39;6.00;99.90
23495;DHT22;26107;50.832;2.950;2022-11-22T03:29:40;6.10;99.90
23495;DHT22;26107;50.832;2.950;2022-11-22T03:44:40;6.20;99.90
23495;DHT22;26107;50.832;2.950;2022-11-22T03:59:41;6.20;99.90
23495;DHT22;26107;50.832;2.950;2022-11-22T04:14:41;6.20;99.90
23495;DHT22;26107;50.832;2.950;2022-11-22T04:30:01;6.10;99.90
23495;DHT22;26107;50.832;2.950;2022-11-22T04:45:01;6.20;99.90
23495;DHT22;26107;50.832;2.950;2022-11-22T05:00:02;6.40;99.90
23495;DHT22;26107;50.832;2.950;2022-11-22T05:15:03;6.00;99.90
23495;DHT22;26107;50.832;2.950;2022-11-22T05:30:04;5.90;99.90
23495;DHT22;26107;50.832;2.950;2022-11-22T05:45:05;6.00;99.90
23495;DHT22;26107;50.832;2.950;2022-11-22T06:00:05;6.40;99.90
23495;DHT22;26107;50.832;2.950;2022-11-22T06:15:06;6.50;99.90
23495;DHT22;26107;50.832;2.950;2022-11-22T06:30:07;6.50;99.90
23495;DHT22;26107;50.832;2.950;2022-11-22T06:45:08;6.60;99.90
23495;DHT22;26107;50.832;2.950;2022-11-22T07:00:08;6.60;99.90
23495;DHT22;26107;50.832;2.950;2022-11-22T07:15:09;6.30;99.90
23495;DHT22;26107;50.832;2.950;2022-11-22T07:30:10;6.30;99.90
23495;DHT22;26107;50.832;2.950;2022-11-22T07:45:10;6.40;99.90
23495;DHT22;26107;50.832;2.950;2022-11-22T08:00:11;6.40;99.90
23495;DHT22;26107;50.832;2.950;2022-11-22T08:15:13;6.60;99.90
23495;DHT22;26107;50.832;2.950;2022-11-22T08:30:14;6.60;99.90
23495;DHT22;26107;50.832;2.950;2022-11-22T08:45:14;6.80;99.90
23495;DHT22;26107;50.832;2.950;2022-11-22T09:00:15;6.90;99.90
23495;DHT22;26107;50.832;2.950;2022-11-22T09:15:15;7.10;99.90
23495;DHT22;26107;50.832;2.950;2022-11-22T09:30:16;7.40;99.90
23495;DHT22;26107;50.832;2.950;2022-11-22T10:00:21;7.90;99.90
23495;DHT22;26107;50.832;2.950;2022-11-22T10:30:33;7.90;99.90
23495;DHT22;26107;50.832;2.950;2022-11-22T10:45:38;8.00;99.90
23495;DHT22;26107;50.832;2.950;2022-11-22T11:00:45;8.40;99.90
23495;DHT22;26107;50.832;2.950;2022-11-22T11:15:49;8.20;99.90
23495;DHT22;26107;50.832;2.950;2022-11-22T11:30:55;8.40;99.90
23495;DHT22;26107;50.832;2.950;2022-11-22T11:46:05;8.50;99.90
23495;DHT22;26107;50.832;2.950;2022-11-22T12:01:16;8.60;99.90
23495;DHT22;26107;50.832;2.950;2022-11-22T12:16:27;8.90;99.90
23495;DHT22;26107;50.832;2.950;2022-11-22T12:46:32;9.30;99.90
23495;DHT22;26107;50.832;2.950;2022-11-22T13:01:40;9.20;99.90
23495;DHT22;26107;50.832;2.950;2022-11-22T13:16:42;9.90;99.90
23495;DHT22;26107;50.832;2.950;2022-11-22T13:32:17;9.90;99.90
23495;DHT22;26107;50.832;2.950;2022-11-22T14:02:22;9.60;99.90
23495;DHT22;26107;50.832;2.950;2022-11-22T14:17:28;9.30;99.90
23495;DHT22;26107;50.832;2.950;2022-11-22T14:32:39;9.50;99.90
23495;DHT22;26107;50.832;2.950;2022-11-22T14:47:43;9.20;99.90
23495;DHT22;26107;50.832;2.950;2022-11-22T15:18:14;9.30;99.90
23495;DHT22;26107;50.832;2.950;2022-11-22T15:33:33;9.40;99.90
23495;DHT22;26107;50.832;2.950;2022-11-22T15:48:35;9.50;99.90
23495;DHT22;26107;50.832;2.950;2022-11-22T16:03:38;9.30;99.90
23495;DHT22;26107;50.832;2.950;2022-11-22T16:18:42;9.50;99.90
23495;DHT22;26107;50.832;2.950;2022-11-22T16:33:43;9.30;99.90
23495;DHT22;26107;50.832;2.950;2022-11-22T16:48:43;9.20;99.90
23495;DHT22;26107;50.832;2.950;2022-11-22T17:03:44;9.40;99.90
23495;DHT22;26107;50.832;2.950;2022-11-22T17:18:45;9.40;99.90
23495;DHT22;26107;50.832;2.950;2022-11-22T17:33:50;9.40;99.90
23495;DHT22;26107;50.832;2.950;2022-11-22T17:48:51;9.30;99.90
23495;DHT22;26107;50.832;2.950;2022-11-22T18:03:52;9.30;99.90
23495;DHT22;26107;50.832;2.950;2022-11-22T18:18:53;9.20;99.90
23495;DHT22;26107;50.832;2.950;2022-11-22T18:33:54;9.30;99.90
23495;DHT22;26107;50.832;2.950;2022-11-22T18:48:54;9.50;99.90
23495;DHT22;26107;50.832;2.950;2022-11-22T19:03:55;9.40;99.90
23495;DHT22;26107;50.832;2.950;2022-11-22T19:18:56;9.50;99.90
23495;DHT22;26107;50.832;2.950;2022-11-22T19:33:57;9.50;99.90
23495;DHT22;26107;50.832;2.950;2022-11-22T19:48:57;9.70;99.90
23495;DHT22;26107;50.832;2.950;2022-11-22T20:04:00;9.50;99.90
23495;DHT22;26107;50.832;2.950;2022-11-22T20:19:02;9.50;99.90
23495;DHT22;26107;50.832;2.950;2022-11-22T20:34:03;9.40;99.90
23495;DHT22;26107;50.832;2.950;2022-11-22T20:49:04;9.50;99.90
23495;DHT22;26107;50.832;2.950;2022-11-22T21:04:05;9.70;99.90
23495;DHT22;26107;50.832;2.950;2022-11-22T21:19:06;9.50;99.90
23495;DHT22;26107;50.832;2.950;2022-11-22T21:34:07;9.60;99.90
23495;DHT22;26107;50.832;2.950;2022-11-22T21:49:08;9.60;99.90
23495;DHT22;26107;50.832;2.950;2022-11-22T22:04:08;9.30;99.90
23495;DHT22;26107;50.832;2.950;2022-11-22T22:19:08;9.60;99.90
23495;DHT22;26107;50.832;2.950;2022-11-22T22:34:09;9.10;99.90
23495;DHT22;26107;50.832;2.950;2022-11-22T22:49:09;9.30;99.90
23495;DHT22;26107;50.832;2.950;2022-11-22T23:04:10;9.40;99.90
23495;DHT22;26107;50.832;2.950;2022-11-22T23:19:11;9.50;99.90
23495;DHT22;26107;50.832;2.950;2022-11-22T23:34:11;9.30;99.90
23495;DHT22;26107;50.832;2.950;2022-11-22T23:49:12;9.50;99.90
